createdAt,value
2019-02-16T00:02:20.751Z,4.77
2019-02-16T00:04:47.551Z,4.90
2019-02-16T00:07:16.035Z,4.73
2019-02-16T00:09:42.790Z,4.70
2019-02-16T00:12:09.768Z,4.83
2019-02-16T00:14:36.859Z,4.10
2019-02-16T00:17:06.632Z,4.23
2019-02-16T00:19:33.408Z,4.30
2019-02-16T00:22:00.220Z,5.53
2019-02-16T00:24:26.974Z,3.80
2019-02-16T00:26:53.728Z,4.00
2019-02-16T00:29:20.526Z,6.63
2019-02-16T00:31:47.260Z,5.57
2019-02-16T00:34:13.998Z,5.03
2019-02-16T00:36:40.854Z,10.80
2019-02-16T00:39:07.636Z,5.50
2019-02-16T00:41:34.386Z,4.33
2019-02-16T00:44:01.167Z,5.97
2019-02-16T00:46:27.976Z,8.37
2019-02-16T00:48:54.788Z,4.47
2019-02-16T00:51:21.826Z,3.77
2019-02-16T00:53:48.579Z,4.07
2019-02-16T00:56:15.499Z,6.37
2019-02-16T00:58:42.251Z,4.60
2019-02-16T01:01:10.144Z,9.27
2019-02-16T01:03:36.934Z,4.83
2019-02-16T01:06:05.957Z,9.53
2019-02-16T01:08:36.184Z,4.87
2019-02-16T01:11:02.942Z,6.00
2019-02-16T01:13:29.679Z,6.30
2019-02-16T01:15:57.852Z,5.70
2019-02-16T01:18:24.684Z,5.57
2019-02-16T01:20:51.405Z,7.43
2019-02-16T01:23:18.276Z,5.53
2019-02-16T01:25:44.991Z,4.87
2019-02-16T01:28:13.028Z,4.70
2019-02-16T01:30:39.914Z,5.20
2019-02-16T01:33:06.724Z,4.60
2019-02-16T01:35:33.486Z,4.90
2019-02-16T01:38:00.309Z,4.00
2019-02-16T01:40:27.052Z,4.70
2019-02-16T01:42:53.840Z,4.13
2019-02-16T01:45:20.538Z,6.60
2019-02-16T01:47:47.286Z,3.90
2019-02-16T01:50:14.067Z,6.73
2019-02-16T01:52:40.897Z,4.70
2019-02-16T01:55:09.151Z,4.70
2019-02-16T01:57:36.085Z,8.27
2019-02-16T02:00:04.780Z,5.13
2019-02-16T02:02:31.811Z,5.70
2019-02-16T02:04:58.566Z,7.50
2019-02-16T02:07:25.274Z,6.70
2019-02-16T02:09:52.337Z,5.20
2019-02-16T02:12:21.680Z,6.03
2019-02-16T02:14:51.034Z,5.80
2019-02-16T02:17:17.771Z,4.17
2019-02-16T02:19:44.529Z,6.00
2019-02-16T02:22:11.268Z,5.00
2019-02-16T02:24:38.009Z,6.40
2019-02-16T02:27:04.737Z,6.40
2019-02-16T02:29:34.319Z,4.23
2019-02-16T02:32:01.043Z,3.97
2019-02-16T02:34:27.782Z,3.97
2019-02-16T02:36:57.139Z,4.20
2019-02-16T02:39:23.939Z,4.40
2019-02-16T02:41:50.867Z,4.20
2019-02-16T02:44:17.616Z,4.43
2019-02-16T02:46:44.457Z,4.33
2019-02-16T02:49:11.295Z,6.30
2019-02-16T02:51:38.904Z,6.00
2019-02-16T02:54:05.651Z,3.60
2019-02-16T02:56:32.395Z,4.73
2019-02-16T02:58:59.234Z,4.47
2019-02-16T03:01:26.013Z,4.93
2019-02-16T03:03:52.794Z,3.80
2019-02-16T03:06:19.687Z,5.77
2019-02-16T03:08:46.528Z,8.40
2019-02-16T03:11:13.265Z,4.27
2019-02-16T03:13:40.123Z,5.60
2019-02-16T03:16:06.963Z,7.73
2019-02-16T03:18:33.837Z,6.63
2019-02-16T03:21:00.610Z,4.00
2019-02-16T03:23:28.862Z,4.10
2019-02-16T03:26:12.343Z,4.03
2019-02-16T03:29:11.551Z,5.33
2019-02-16T03:32:38.821Z,4.70
2019-02-16T03:35:41.122Z,4.53
2019-02-16T03:38:47.223Z,4.27
2019-02-16T03:41:16.613Z,7.10
2019-02-16T03:43:43.351Z,4.33
2019-02-16T03:46:10.068Z,4.23
2019-02-16T03:48:36.968Z,4.10
2019-02-16T03:51:03.717Z,5.60
2019-02-16T03:53:30.881Z,4.60
2019-02-16T03:55:57.604Z,4.03
2019-02-16T03:58:24.389Z,5.90
2019-02-16T04:00:51.251Z,4.60
2019-02-16T04:03:18.124Z,4.00
2019-02-16T04:05:44.847Z,4.47
2019-02-16T04:08:11.608Z,5.20
2019-02-16T04:10:38.337Z,8.23
2019-02-16T04:13:05.075Z,6.17
2019-02-16T04:15:35.108Z,4.63
2019-02-16T04:18:01.939Z,4.77
2019-02-16T04:20:28.687Z,4.93
2019-02-16T04:22:55.433Z,4.63
2019-02-16T04:25:22.169Z,6.70
2019-02-16T04:27:51.754Z,9.67
2019-02-16T04:30:18.595Z,4.93
2019-02-16T04:32:45.432Z,4.50
2019-02-16T04:35:12.198Z,4.63
2019-02-16T04:37:39.047Z,5.53
2019-02-16T04:40:07.864Z,4.90
2019-02-16T04:42:34.642Z,5.33
2019-02-16T04:45:01.369Z,13.00
2019-02-16T04:47:28.095Z,5.90
2019-02-16T04:49:54.814Z,9.17
2019-02-16T04:52:21.582Z,6.83
2019-02-16T04:54:48.291Z,6.77
2019-02-16T04:57:15.492Z,7.67
2019-02-16T04:59:42.217Z,5.50
2019-02-16T05:02:08.949Z,5.90
2019-02-16T05:04:35.691Z,5.40
2019-02-16T05:07:02.783Z,4.90
2019-02-16T05:09:29.502Z,6.83
2019-02-16T05:11:56.367Z,5.93
2019-02-16T05:14:23.206Z,6.23
2019-02-16T05:16:51.921Z,4.30
2019-02-16T05:19:18.668Z,4.20
2019-02-16T05:21:45.446Z,4.33
2019-02-16T05:24:13.648Z,5.40
2019-02-16T05:26:40.361Z,8.80
2019-02-16T05:29:10.081Z,6.60
2019-02-16T05:31:37.382Z,4.87
2019-02-16T05:34:04.210Z,4.10
2019-02-16T05:36:31.605Z,8.77
2019-02-16T05:39:04.164Z,3.60
2019-02-16T05:41:30.929Z,9.17
2019-02-16T05:44:00.937Z,6.10
2019-02-16T05:46:27.782Z,3.97
2019-02-16T05:48:54.500Z,4.97
2019-02-16T05:51:21.591Z,4.20
2019-02-16T05:53:48.342Z,6.93
2019-02-16T05:56:15.096Z,3.90
2019-02-16T05:58:41.834Z,3.97
2019-02-16T06:01:08.607Z,3.90
2019-02-16T06:03:35.399Z,4.60
2019-02-16T06:06:02.175Z,3.90
2019-02-16T06:08:28.935Z,8.13
2019-02-16T06:10:58.556Z,5.30
2019-02-16T06:13:25.283Z,6.43
2019-02-16T06:15:52.175Z,5.60
2019-02-16T06:18:19.336Z,4.67
2019-02-16T06:20:48.875Z,9.80
2019-02-16T06:23:15.761Z,10.03
2019-02-16T06:25:42.497Z,5.60
2019-02-16T06:28:09.374Z,6.10
2019-02-16T06:30:36.109Z,4.07
2019-02-16T06:33:02.829Z,5.63
2019-02-16T06:35:40.035Z,6.00
2019-02-16T06:38:07.624Z,3.73
2019-02-16T06:40:34.844Z,5.70
2019-02-16T06:43:01.589Z,3.97
2019-02-16T06:45:28.416Z,3.73
2019-02-16T06:47:55.262Z,4.17
2019-02-16T06:50:22.007Z,3.80
2019-02-16T06:52:51.651Z,5.33
2019-02-16T06:55:18.454Z,6.27
2019-02-16T06:57:47.984Z,5.73
2019-02-16T07:00:16.919Z,4.40
2019-02-16T07:02:43.892Z,8.37
2019-02-16T07:05:11.135Z,5.27
2019-02-16T07:07:37.902Z,6.20
2019-02-16T07:10:05.664Z,3.70
2019-02-16T07:12:43.592Z,5.03
2019-02-16T07:15:10.336Z,3.50
2019-02-16T07:17:52.525Z,3.27
2019-02-16T07:20:21.179Z,4.20
2019-02-16T07:22:48.125Z,6.80
2019-02-16T07:25:15.232Z,3.50
2019-02-16T07:27:41.990Z,4.23
2019-02-16T07:30:13.745Z,4.50
2019-02-16T07:32:43.353Z,3.10
2019-02-16T07:35:10.481Z,3.27
2019-02-16T07:37:37.626Z,4.13
2019-02-16T07:40:04.502Z,4.20
2019-02-16T07:42:48.174Z,4.27
2019-02-16T07:45:21.256Z,6.37
2019-02-16T07:48:07.600Z,10.80
2019-02-16T07:50:48.959Z,4.40
2019-02-16T07:53:41.361Z,5.00
2019-02-16T07:56:30.238Z,4.20
2019-02-16T07:59:16.918Z,9.33
2019-02-16T08:01:49.931Z,6.43
2019-02-16T08:04:30.844Z,7.20
2019-02-16T08:07:20.927Z,7.07
2019-02-16T08:10:05.831Z,6.00
2019-02-16T08:12:54.965Z,8.70
2019-02-16T08:15:41.377Z,8.67
2019-02-16T08:18:33.852Z,4.30
2019-02-16T08:21:20.161Z,4.43
2019-02-16T08:24:15.385Z,3.67
2019-02-16T08:26:55.198Z,3.70
2019-02-16T08:29:44.604Z,8.57
2019-02-16T08:32:43.264Z,4.37
2019-02-16T08:35:25.991Z,5.17
2019-02-16T08:38:11.183Z,4.30
2019-02-16T08:41:00.630Z,4.83
2019-02-16T08:43:49.168Z,7.97
2019-02-16T08:46:26.795Z,7.83
2019-02-16T08:49:06.585Z,4.70
2019-02-16T08:51:48.587Z,7.30
2019-02-16T08:54:23.981Z,23.03
2019-02-16T08:57:12.595Z,7.17
2019-02-16T09:00:14.231Z,5.33
2019-02-16T09:02:59.774Z,7.10
2019-02-16T09:05:51.400Z,6.97
2019-02-16T09:08:34.399Z,5.93
2019-02-16T09:11:27.289Z,6.30
2019-02-16T09:14:00.847Z,9.97
2019-02-16T09:16:38.395Z,7.00
2019-02-16T09:19:24.317Z,12.83
2019-02-16T09:22:17.814Z,9.90
2019-02-16T09:24:53.645Z,11.47
2019-02-16T09:27:48.986Z,6.90
2019-02-16T09:30:40.599Z,9.50
2019-02-16T09:33:27.526Z,11.20
2019-02-16T09:36:16.891Z,12.60
2019-02-16T09:39:07.899Z,15.63
2019-02-16T09:41:55.105Z,11.53
2019-02-16T09:44:41.621Z,13.87
2019-02-16T09:47:37.216Z,15.00
2019-02-16T09:50:10.650Z,10.50
2019-02-16T09:52:50.325Z,12.17
2019-02-16T09:55:45.902Z,13.80
2019-02-16T09:58:31.315Z,13.97
2019-02-16T10:01:24.145Z,17.00
2019-02-16T10:04:28.612Z,14.73
2019-02-16T10:07:10.617Z,16.67
2019-02-16T10:09:57.312Z,12.20
2019-02-16T10:12:34.514Z,18.10
2019-02-16T10:15:24.381Z,20.60
2019-02-16T10:18:06.295Z,15.33
2019-02-16T10:20:51.311Z,14.87
2019-02-16T10:23:33.053Z,15.40
2019-02-16T10:26:15.330Z,22.27
2019-02-16T10:28:52.444Z,21.50
2019-02-16T10:31:37.329Z,18.40
2019-02-16T10:34:29.867Z,20.00
2019-02-16T10:37:07.296Z,18.67
2019-02-16T10:40:06.223Z,16.73
2019-02-16T10:43:07.664Z,14.90
2019-02-16T10:45:56.412Z,14.27
2019-02-16T10:48:31.023Z,18.97
2019-02-16T10:51:08.929Z,16.27
2019-02-16T10:53:55.309Z,22.20
2019-02-16T10:56:37.776Z,17.33
2019-02-16T10:59:30.234Z,16.57
2019-02-16T11:02:32.009Z,14.23
2019-02-16T11:05:16.743Z,16.10
2019-02-16T11:08:06.407Z,19.27
2019-02-16T11:13:29.267Z,18.10
2019-02-16T11:16:03.557Z,13.37
2019-02-16T11:18:39.829Z,14.70
2019-02-16T11:21:41.597Z,14.10
2019-02-16T11:24:46.834Z,12.47
2019-02-16T11:27:25.123Z,14.97
2019-02-16T11:30:12.185Z,14.00
2019-02-16T11:32:52.554Z,14.00
2019-02-16T11:35:40.375Z,14.67
2019-02-16T11:38:13.519Z,18.90
2019-02-16T11:41:06.261Z,18.43
2019-02-16T11:43:58.404Z,12.10
2019-02-16T11:46:44.805Z,11.10
2019-02-16T11:49:27.374Z,12.50
2019-02-16T11:52:03.683Z,13.53
2019-02-16T11:55:02.271Z,17.83
2019-02-16T11:57:46.598Z,11.53
2019-02-16T12:00:31.998Z,11.00
2019-02-16T12:03:04.706Z,13.17
2019-02-16T12:05:36.228Z,11.57
2019-02-16T12:08:28.481Z,18.03
2019-02-16T12:11:08.516Z,15.00
2019-02-16T12:13:54.057Z,14.23
2019-02-16T12:16:30.360Z,12.60
2019-02-16T12:19:19.711Z,14.90
2019-02-16T12:22:14.482Z,13.93
2019-02-16T12:25:05.718Z,15.03
2019-02-16T12:27:46.244Z,12.60
2019-02-16T12:30:31.545Z,18.90
2019-02-16T12:33:06.571Z,13.77
2019-02-16T12:35:54.337Z,15.83
2019-02-16T12:38:39.406Z,16.17
2019-02-16T12:41:25.971Z,14.93
2019-02-16T12:44:11.649Z,16.77
2019-02-16T12:46:56.050Z,14.83
2019-02-16T12:49:35.604Z,14.77
2019-02-16T12:52:15.813Z,15.83
2019-02-16T12:54:50.957Z,14.27
2019-02-16T12:57:45.330Z,15.37
2019-02-16T13:00:28.373Z,15.37
2019-02-16T13:03:11.783Z,13.70
2019-02-16T13:05:54.626Z,14.60
2019-02-16T13:08:48.307Z,14.50
2019-02-16T13:11:35.043Z,15.93
2019-02-16T13:14:25.692Z,17.23
2019-02-16T13:17:15.407Z,14.90
2019-02-16T13:19:54.233Z,13.30
2019-02-16T13:22:32.830Z,14.30
2019-02-16T13:25:12.520Z,16.33
2019-02-16T13:28:02.651Z,13.70
2019-02-16T13:30:43.889Z,13.97
2019-02-16T13:33:23.996Z,19.63
2019-02-16T13:36:28.466Z,15.03
2019-02-16T13:39:19.746Z,13.47
2019-02-16T13:41:58.264Z,17.70
2019-02-16T13:44:41.170Z,18.50
2019-02-16T13:47:18.951Z,14.10
2019-02-16T13:50:14.422Z,15.43
2019-02-16T13:53:12.893Z,13.60
2019-02-16T13:55:59.618Z,21.20
2019-02-16T13:58:33.491Z,16.10
2019-02-16T14:01:19.484Z,15.60
2019-02-16T14:03:57.933Z,17.03
2019-02-16T14:06:37.612Z,12.77
2019-02-16T14:09:30.598Z,15.40
2019-02-16T14:12:30.184Z,14.30
2019-02-16T14:15:06.700Z,14.67
2019-02-16T14:17:44.650Z,14.87
2019-02-16T14:20:12.082Z,12.87
2019-02-16T14:22:39.316Z,15.87
2019-02-16T14:25:08.709Z,14.83
2019-02-16T14:27:35.776Z,14.17
2019-02-16T14:30:02.950Z,17.37
2019-02-16T14:32:31.910Z,16.60
2019-02-16T14:34:58.935Z,12.97
2019-02-16T14:37:48.631Z,16.40
2019-02-16T14:40:15.524Z,14.50
2019-02-16T14:42:42.628Z,28.90
2019-02-16T14:45:10.504Z,18.50
2019-02-16T14:47:37.384Z,14.83
2019-02-16T14:50:04.779Z,14.77
2019-02-16T14:52:35.002Z,12.47
2019-02-16T14:55:01.848Z,15.57
2019-02-16T14:57:28.717Z,14.37
2019-02-16T14:59:56.293Z,16.00
2019-02-16T15:02:25.651Z,13.73
2019-02-16T15:04:52.580Z,13.90
2019-02-16T15:07:19.338Z,17.20
2019-02-16T15:09:46.408Z,14.60
2019-02-16T15:12:13.614Z,16.33
2019-02-16T15:14:40.355Z,12.73
2019-02-16T15:17:07.481Z,12.57
2019-02-16T15:19:34.341Z,17.93
2019-02-16T15:22:01.063Z,18.03
2019-02-16T15:24:28.061Z,11.97
2019-02-16T15:26:55.004Z,13.30
2019-02-16T15:29:23.995Z,15.40
2019-02-16T15:31:50.894Z,14.40
2019-02-16T15:34:17.681Z,23.57
2019-02-16T15:36:44.666Z,16.20
2019-02-16T15:39:11.441Z,13.40
2019-02-16T15:41:38.215Z,15.27
2019-02-16T15:44:05.045Z,14.63
2019-02-16T15:46:31.861Z,18.10
2019-02-16T15:48:59.520Z,12.33
2019-02-16T15:51:26.317Z,18.70
2019-02-16T15:53:53.159Z,20.33
2019-02-16T15:56:21.629Z,15.47
2019-02-16T15:58:48.589Z,11.00
2019-02-16T16:01:15.695Z,16.60
2019-02-16T16:03:42.517Z,20.57
2019-02-16T16:06:09.344Z,14.13
2019-02-16T16:09:02.025Z,18.10
2019-02-16T16:11:50.510Z,19.30
2019-02-16T16:14:37.113Z,14.97
2019-02-16T16:17:38.623Z,15.87
2019-02-16T16:20:28.074Z,17.87
2019-02-16T16:23:06.815Z,15.27
2019-02-16T16:25:39.894Z,19.57
2019-02-16T16:28:22.767Z,16.30
2019-02-16T16:30:57.639Z,15.67
2019-02-16T16:33:52.657Z,17.43
2019-02-16T16:36:28.939Z,19.20
2019-02-16T16:39:16.721Z,25.80
2019-02-16T16:42:05.956Z,24.47
2019-02-16T16:44:38.043Z,33.43
2019-02-16T16:47:42.689Z,17.17
2019-02-16T16:50:25.011Z,22.60
2019-02-16T16:53:10.265Z,22.00
2019-02-16T16:55:53.573Z,14.73
2019-02-16T16:58:42.795Z,12.60
2019-02-16T17:01:27.635Z,12.83
2019-02-16T17:04:17.519Z,11.40
2019-02-16T17:07:08.407Z,11.53
2019-02-16T17:09:53.465Z,12.50
2019-02-16T17:12:40.044Z,11.47
2019-02-16T17:15:19.728Z,13.23
2019-02-16T17:17:54.172Z,13.30
2019-02-16T17:20:30.694Z,16.40
2019-02-16T17:23:20.149Z,14.90
2019-02-16T17:26:10.116Z,16.60
2019-02-16T17:28:50.967Z,13.10
2019-02-16T17:31:23.541Z,14.70
2019-02-16T17:34:21.589Z,14.63
2019-02-16T17:36:57.854Z,17.90
2019-02-16T17:39:38.564Z,27.80
2019-02-16T17:42:43.411Z,15.80
2019-02-16T17:45:33.409Z,11.40
2019-02-16T17:48:20.241Z,11.97
2019-02-16T17:50:56.495Z,17.20
2019-02-16T17:53:43.306Z,17.53
2019-02-16T17:56:22.357Z,13.00
2019-02-16T17:59:17.606Z,16.03
2019-02-16T18:01:54.741Z,20.00
2019-02-16T18:04:41.167Z,12.73
2019-02-16T18:07:18.315Z,9.13
2019-02-16T18:10:04.681Z,13.70
2019-02-16T18:12:43.710Z,12.63
2019-02-16T18:15:33.593Z,10.90
2019-02-16T18:18:35.289Z,10.10
2019-02-16T18:21:10.368Z,8.87
2019-02-16T18:23:50.589Z,10.43
2019-02-16T18:26:56.742Z,9.47
2019-02-16T18:29:46.383Z,7.00
2019-02-16T18:32:35.803Z,10.70
2019-02-16T18:35:31.287Z,8.23
2019-02-16T18:38:16.333Z,10.50
2019-02-16T18:41:09.134Z,9.17
2019-02-16T18:43:45.587Z,9.20
2019-02-16T18:46:46.703Z,9.17
2019-02-16T18:49:31.646Z,7.80
2019-02-16T18:52:16.947Z,11.53
2019-02-16T18:54:58.798Z,9.60
2019-02-16T18:57:51.000Z,10.23
2019-02-16T19:00:49.476Z,6.63
2019-02-16T19:03:45.362Z,10.87
2019-02-16T19:06:39.467Z,6.47
2019-02-16T19:09:24.206Z,10.87
2019-02-16T19:12:09.548Z,8.83
2019-02-16T19:15:07.787Z,8.23
2019-02-16T19:17:50.338Z,6.87
2019-02-16T19:20:35.307Z,8.47
2019-02-16T19:23:36.766Z,10.90
2019-02-16T19:26:31.689Z,7.50
2019-02-16T19:29:07.906Z,9.30
2019-02-16T19:31:48.680Z,9.50
2019-02-16T19:34:35.068Z,13.10
2019-02-16T19:37:21.432Z,7.10
2019-02-16T19:39:57.607Z,9.23
2019-02-16T19:42:49.775Z,7.00
2019-02-16T19:45:48.493Z,13.97
2019-02-16T19:48:37.904Z,8.60
2019-02-16T19:51:23.223Z,8.37
2019-02-16T19:54:04.334Z,9.23
2019-02-16T19:56:53.700Z,6.57
2019-02-16T19:59:49.187Z,8.27
2019-02-16T20:02:39.195Z,8.20
2019-02-16T20:05:25.321Z,11.00
2019-02-16T20:08:00.710Z,10.43
2019-02-16T20:10:41.464Z,7.37
2019-02-16T20:13:26.595Z,8.73
2019-02-16T20:16:05.452Z,7.73
2019-02-16T20:18:51.847Z,7.27
2019-02-16T20:21:34.463Z,8.17
2019-02-16T20:24:17.798Z,9.53
2019-02-16T20:27:08.749Z,14.73
2019-02-16T20:29:45.772Z,9.13
2019-02-16T20:32:30.546Z,10.43
2019-02-16T20:35:19.293Z,7.00
2019-02-16T20:38:18.025Z,8.13
2019-02-16T20:41:03.295Z,8.53
2019-02-16T20:43:59.618Z,10.17
2019-02-16T20:46:31.874Z,8.93
2019-02-16T20:49:24.007Z,14.67
2019-02-16T20:52:13.176Z,9.70
2019-02-16T20:55:11.773Z,8.93
2019-02-16T20:57:48.369Z,9.00
2019-02-16T21:00:29.418Z,7.23
2019-02-16T21:03:18.551Z,8.63
2019-02-16T21:06:17.060Z,10.10
2019-02-16T21:09:09.261Z,10.00
2019-02-16T21:11:55.667Z,8.23
2019-02-16T21:14:31.225Z,10.10
2019-02-16T21:17:06.866Z,8.93
2019-02-16T21:19:44.789Z,9.63
2019-02-16T21:22:33.918Z,7.47
2019-02-16T21:25:09.791Z,12.10
2019-02-16T21:27:43.438Z,15.90
2019-02-16T21:30:37.989Z,6.80
2019-02-16T21:33:39.716Z,8.70
2019-02-16T21:36:19.028Z,8.13
2019-02-16T21:39:11.362Z,10.10
2019-02-16T21:42:04.302Z,10.63
2019-02-16T21:45:02.690Z,8.80
2019-02-16T21:47:47.586Z,13.87
2019-02-16T21:50:32.416Z,10.10
2019-02-16T21:53:08.657Z,8.83
2019-02-16T21:56:01.562Z,7.23
2019-02-16T21:58:50.794Z,8.57
2019-02-16T22:01:28.408Z,8.57
2019-02-16T22:04:04.831Z,9.57
2019-02-16T22:06:43.468Z,7.90
2019-02-16T22:09:28.414Z,8.50
2019-02-16T22:12:20.727Z,9.07
2019-02-16T22:14:47.467Z,8.43
2019-02-16T22:17:14.216Z,8.37
2019-02-16T22:19:41.027Z,8.90
2019-02-16T22:22:07.793Z,8.37
2019-02-16T22:24:34.775Z,8.87
2019-02-16T22:27:01.553Z,11.53
2019-02-16T22:29:30.313Z,8.47
2019-02-16T22:31:57.120Z,9.20
2019-02-16T22:34:23.857Z,11.73
2019-02-16T22:36:50.646Z,9.57
2019-02-16T22:39:17.766Z,11.20
2019-02-16T22:41:44.505Z,10.50
2019-02-16T22:44:11.322Z,8.20
2019-02-16T22:46:40.419Z,11.67
2019-02-16T22:49:07.201Z,11.43
2019-02-16T22:51:34.041Z,7.60
2019-02-16T22:54:01.171Z,7.80
2019-02-16T22:56:28.394Z,7.90
2019-02-16T22:58:55.389Z,8.50
2019-02-16T23:01:22.245Z,8.27
2019-02-16T23:03:49.003Z,6.77
2019-02-16T23:06:15.777Z,7.17
2019-02-16T23:08:42.661Z,10.47
2019-02-16T23:11:09.426Z,9.20
2019-02-16T23:13:36.499Z,10.67
2019-02-16T23:16:03.269Z,10.53
2019-02-16T23:18:30.038Z,11.07
2019-02-16T23:20:57.274Z,9.90
2019-02-16T23:23:24.055Z,12.70
2019-02-16T23:25:53.819Z,9.27
2019-02-16T23:28:20.600Z,13.10
2019-02-16T23:30:49.329Z,10.90
2019-02-16T23:33:16.187Z,8.13
2019-02-16T23:35:43.109Z,7.60
2019-02-16T23:38:10.000Z,9.37
2019-02-16T23:40:36.934Z,14.00
2019-02-16T23:43:03.781Z,9.70
2019-02-16T23:45:30.581Z,8.40
2019-02-16T23:47:57.333Z,7.40
2019-02-16T23:50:24.237Z,7.37
2019-02-16T23:52:51.097Z,6.70
2019-02-16T23:55:17.854Z,10.10
2019-02-16T23:57:44.885Z,10.30
